Time;durP1;ratioP1;P1;durP2;ratioP2;P2;SDS_P1;SDS_P2;PMS_P1;PMS_P2;Temp;Humidity;BMP_temperature;BMP_pressure;BME280_temperature;BME280_humidity;BME280_pressure;Samples;Min_cycle;Max_cycle;Signal;HPM_P1;HPM_P2
2023/02/19 00:02:26;;;;;;;3.67;2.90;;;10.00;99.90;;;13.09;58.79;98160.56;5031674;28;20056;-44
2023/02/19 00:04:54;;;;;;;3.33;2.67;;;10.00;99.90;;;13.08;58.73;98153.50;5030385;28;20120;-45
2023/02/19 00:07:22;;;;;;;3.67;2.90;;;10.00;99.90;;;13.07;58.47;98149.19;5031159;28;20049;-43
2023/02/19 00:09:49;;;;;;;3.90;2.90;;;10.00;99.90;;;13.04;58.85;98155.69;5030720;28;20038;-45
2023/02/19 00:12:17;;;;;;;3.30;2.37;;;10.00;99.90;;;13.04;58.69;98145.00;5031241;28;20045;-43
2023/02/19 00:14:44;;;;;;;4.43;2.90;;;10.00;99.90;;;13.05;58.61;98141.31;5030665;28;20502;-43
2023/02/19 00:17:12;;;;;;;4.90;2.73;;;10.00;99.90;;;13.04;58.62;98134.28;5031213;28;20041;-47
2023/02/19 00:19:39;;;;;;;3.83;3.33;;;10.00;99.90;;;13.00;58.80;98140.97;5030737;28;20416;-46
2023/02/19 00:22:07;;;;;;;3.67;2.30;;;10.00;99.90;;;13.03;58.55;98142.47;5029910;28;20041;-48
2023/02/19 00:24:34;;;;;;;3.57;2.37;;;9.90;99.90;;;12.89;58.76;98142.13;5030790;28;20052;-45
2023/02/19 00:27:02;;;;;;;4.43;3.13;;;9.80;99.90;;;12.90;58.89;98148.31;5030907;28;20497;-47
2023/02/19 00:29:29;;;;;;;3.97;2.80;;;9.80;99.90;;;12.88;58.91;98153.81;5029131;28;20061;-48
2023/02/19 00:31:58;;;;;;;5.13;2.60;;;9.80;99.90;;;12.84;59.19;98149.78;5029484;28;20041;-46
2023/02/19 00:34:26;;;;;;;3.10;2.80;;;9.80;99.90;;;12.82;59.24;98153.66;5030501;28;20045;-46
2023/02/19 00:36:53;;;;;;;3.63;2.73;;;9.80;99.90;;;12.76;59.10;98142.59;5031262;28;20065;-48
2023/02/19 00:39:21;;;;;;;3.73;2.27;;;9.70;99.90;;;12.80;59.15;98148.44;5030954;28;20506;-46
2023/02/19 00:41:49;;;;;;;5.57;2.43;;;9.70;99.90;;;12.73;59.30;98150.09;5028959;28;20517;-43
2023/02/19 00:44:17;;;;;;;3.03;2.73;;;9.60;99.90;;;12.68;59.21;98147.06;5030392;28;20049;-45
2023/02/19 00:46:47;;;;;;;2.83;2.27;;;9.60;99.90;;;12.75;59.45;98140.09;5034771;28;20061;-45
2023/02/19 00:49:22;;;;;;;3.40;2.53;;;9.70;99.90;;;12.77;59.08;98132.75;5033181;28;20402;-43
2023/02/19 00:51:51;;;;;;;4.50;3.27;;;9.70;99.90;;;12.78;59.47;98121.06;5032963;28;20052;-45
2023/02/19 00:54:21;;;;;;;3.50;2.63;;;9.70;99.90;;;12.84;59.22;98124.91;5034889;28;20056;-48
2023/02/19 00:56:50;;;;;;;4.93;2.73;;;9.80;99.90;;;12.89;59.37;98128.78;5033676;28;20053;-45
2023/02/19 00:59:18;;;;;;;3.23;2.23;;;9.80;99.90;;;12.91;59.17;98124.09;5033335;28;20057;-46
2023/02/19 01:01:45;;;;;;;4.10;2.50;;;9.90;99.90;;;12.94;58.88;98120.25;5032677;28;20060;-48
2023/02/19 01:04:15;;;;;;;3.23;2.47;;;9.90;99.90;;;12.93;58.87;98110.56;5032778;28;20057;-44
2023/02/19 01:06:42;;;;;;;3.10;2.77;;;9.90;99.90;;;12.88;58.92;98107.56;5034280;28;20068;-46
2023/02/19 01:09:10;;;;;;;2.63;2.17;;;9.90;99.90;;;12.94;58.83;98115.75;5034694;28;20040;-44
2023/02/19 01:11:40;;;;;;;3.93;2.23;;;9.90;99.90;;;12.96;59.09;98120.94;5034160;28;20041;-45
2023/02/19 01:14:08;;;;;;;2.80;2.27;;;9.90;99.90;;;12.94;58.89;98118.41;5025981;28;20045;-46
2023/02/19 01:16:36;;;;;;;3.40;2.40;;;9.90;99.90;;;12.96;59.12;98115.59;5032817;28;20124;-49
2023/02/19 01:19:03;;;;;;;2.80;2.40;;;9.90;99.90;;;12.95;58.77;98113.91;5034112;28;20042;-47
2023/02/19 01:21:31;;;;;;;2.90;2.20;;;9.90;99.90;;;12.96;58.70;98110.25;5032581;28;20053;-44
2023/02/19 01:23:59;;;;;;;2.93;2.27;;;9.90;99.90;;;12.87;58.93;98112.06;5033735;28;20052;-48
2023/02/19 01:26:31;;;;;;;2.90;2.40;;;9.80;99.90;;;12.87;59.13;98111.22;5033347;28;20045;-46
2023/02/19 01:29:00;;;;;;;3.00;2.33;;;9.80;99.90;;;12.92;59.04;98111.56;5034154;28;20056;-47
2023/02/19 01:31:29;;;;;;;2.67;1.83;;;9.80;99.90;;;12.90;59.09;98108.22;5034067;28;20551;-45
2023/02/19 01:34:00;;;;;;;2.63;2.00;;;9.80;99.90;;;12.94;58.82;98112.25;5033549;28;20041;-45
2023/02/19 01:36:30;;;;;;;2.50;1.83;;;9.90;99.90;;;13.01;58.73;98110.59;5033737;28;20049;-44
2023/02/19 01:39:03;;;;;;;4.17;2.70;;;9.90;99.90;;;13.06;58.73;98112.75;5031541;28;20377;-47
2023/02/19 01:41:37;;;;;;;2.38;1.85;;;10.00;99.90;;;13.06;58.71;98107.41;5031435;28;20436;-47
2023/02/19 01:44:11;;;;;;;2.42;2.00;;;10.00;99.90;;;13.07;58.49;98107.25;5031075;28;20045;-45
2023/02/19 01:46:43;;;;;;;3.25;2.10;;;9.90;99.90;;;13.06;58.46;98107.41;5032103;28;20053;-46
2023/02/19 01:49:22;;;;;;;3.35;1.98;;;9.90;99.90;;;12.92;58.90;98107.06;5024963;28;20034;-44
2023/02/19 01:52:14;;;;;;;2.67;2.10;;;9.80;99.90;;;12.81;58.75;98110.03;5031312;28;20042;-43
2023/02/19 01:54:44;;;;;;;3.43;2.07;;;9.70;99.90;;;12.75;59.17;98108.84;5014663;28;20045;-45
2023/02/19 01:57:25;;;;;;;3.57;2.47;;;9.60;99.90;;;12.75;59.27;98113.38;5023021;28;20061;-43
2023/02/19 02:00:00;;;;;;;3.50;2.20;;;9.60;99.90;;;12.62;59.71;98121.88;5028483;28;20053;-48
2023/02/19 02:02:41;;;;;;;3.33;2.50;;;9.50;99.90;;;12.62;59.59;98124.53;5033559;28;20057;-46
2023/02/19 02:05:28;;;;;;;2.67;2.10;;;9.50;99.90;;;12.54;59.82;98119.16;5014022;28;20524;-44
2023/02/19 02:10:43;;;;;;;2.83;1.93;;;9.50;99.90;;;12.63;59.90;98110.16;5017303;28;20292;-45
2023/02/19 02:13:11;;;;;;;2.57;1.93;;;9.50;99.90;;;12.66;59.70;98100.97;5023016;28;20049;-47
2023/02/19 02:15:58;;;;;;;2.43;1.87;;;9.60;99.90;;;12.69;59.89;98090.81;5015104;28;20501;-47
2023/02/19 02:19:29;;;;;;;3.60;2.20;;;9.60;99.90;;;12.67;59.86;98086.63;5026003;28;20098;-48
2023/02/19 02:22:15;;;;;;;2.20;1.77;;;9.70;99.90;;;12.65;59.85;98086.81;5017815;28;20041;-43
2023/02/19 02:25:30;;;;;;;2.97;1.93;;;9.60;99.90;;;12.63;59.76;98074.63;5030650;28;20053;-45
2023/02/19 02:28:43;;;;;;;2.35;1.90;;;9.60;99.90;;;12.63;60.37;98066.59;5026065;28;20289;-45
2023/02/19 02:31:39;;;;;;;2.10;1.70;;;9.60;99.90;;;12.68;59.90;98065.13;5022851;28;20046;-47
2023/02/19 02:34:17;;;;;;;2.30;1.70;;;9.70;99.90;;;12.72;59.53;98058.44;5030221;28;20034;-44
2023/02/19 02:36:51;;;;;;;1.50;1.40;;;9.70;99.90;;;12.76;59.75;98065.13;4994878;28;1035626;-46
2023/02/19 02:39:24;;;;;;;2.00;1.30;;;9.70;99.90;;;12.75;59.93;98068.78;5025913;28;20064;-47
2023/02/19 02:47:51;;;;;;;1.57;1.27;;;9.70;99.90;;;12.75;59.93;98057.25;5030909;28;20049;-43
2023/02/19 02:50:37;;;;;;;1.53;1.27;;;9.70;99.90;;;12.70;60.31;98064.97;5024353;28;20060;-46
2023/02/19 02:56:02;;;;;;;0.77;0.70;;;9.70;99.90;;;12.74;59.48;98059.09;5031103;28;20057;-46
2023/02/19 02:58:33;;;;;;;1.00;0.90;;;9.70;99.90;;;12.75;59.68;98065.28;5015553;28;20045;-46
2023/02/19 03:08:10;;;;;;;0.70;0.70;;;9.60;99.90;;;12.54;59.78;98052.38;5027822;28;20053;-45
2023/02/19 03:10:47;;;;;;;0.67;0.67;;;9.50;99.90;;;12.51;59.71;98058.06;5015396;28;20045;-46
2023/02/19 03:19:21;;;;;;;0.80;0.73;;;9.40;99.90;;;12.44;60.28;98047.19;5031163;28;20042;-44
2023/02/19 03:22:10;;;;;;;0.50;0.50;;;9.50;99.90;;;12.35;60.54;98041.00;5014926;28;20042;-45
2023/02/19 03:27:39;;;;;;;0.70;0.60;;;9.50;99.90;;;12.51;60.08;98040.19;5025860;28;20037;-44
2023/02/19 03:30:18;;;;;;;0.97;0.73;;;9.50;99.90;;;12.32;60.40;98046.66;5030651;28;20050;-47
2023/02/19 03:32:59;;;;;;;1.30;0.70;;;9.40;99.90;;;12.39;60.20;98047.69;5030282;28;20056;-43
2023/02/19 03:35:32;;;;;;;0.80;0.80;;;9.50;99.90;;;12.36;60.64;98041.84;5023604;28;20417;-46
2023/02/19 03:38:24;;;;;;;0.83;0.77;;;9.40;99.90;;;12.35;60.39;98035.66;5030528;28;20501;-43
2023/02/19 03:41:21;;;;;;;0.70;0.70;;;9.40;99.90;;;12.32;60.16;98029.81;5032222;28;20049;-43
2023/02/19 03:44:17;;;;;;;0.87;0.77;;;9.40;99.90;;;12.32;60.33;98027.13;5018459;28;20057;-46
2023/02/19 03:47:12;;;;;;;0.63;0.63;;;9.40;99.90;;;12.31;60.09;98031.66;5025924;28;20490;-43
2023/02/19 03:49:53;;;;;;;0.63;0.60;;;9.40;99.90;;;12.24;60.48;98033.28;5027035;28;20052;-46
2023/02/19 03:52:52;;;;;;;0.60;0.50;;;9.40;99.90;;;12.26;60.30;98038.47;4991073;28;20045;-47
2023/02/19 03:55:49;;;;;;;0.47;0.47;;;9.40;99.90;;;12.28;59.65;98037.31;4998921;28;20052;-46
2023/02/19 03:58:27;;;;;;;0.57;0.57;;;9.40;99.90;;;12.10;60.44;98032.09;5022486;28;20052;-47
2023/02/19 04:01:12;;;;;;;0.70;0.70;;;9.30;99.90;;;12.04;60.39;98059.41;5030569;28;20057;-46
2023/02/19 04:03:48;;;;;;;0.73;0.70;;;9.30;99.90;;;12.12;60.14;98050.59;5029427;28;20416;-47
2023/02/19 04:06:26;;;;;;;0.77;0.70;;;9.30;99.90;;;11.97;60.38;98045.88;5029827;28;20065;-44
2023/02/19 04:08:59;;;;;;;0.53;0.53;;;9.30;99.90;;;12.06;59.85;98053.91;5029710;28;20044;-45
2023/02/19 04:11:29;;;;;;;0.93;0.70;;;9.20;99.90;;;12.02;59.92;98062.25;5030018;28;20049;-47
2023/02/19 04:14:31;;;;;;;0.60;0.50;;;9.20;99.90;;;11.95;60.15;98065.72;5013918;28;20041;-47
2023/02/19 04:17:05;;;;;;;0.87;0.73;;;9.20;99.90;;;11.74;61.06;98058.88;5030095;28;20057;-45
2023/02/19 04:19:37;;;;;;;0.77;0.67;;;9.10;99.90;;;11.89;60.56;98063.66;5029717;28;20049;-43
2023/02/19 04:22:06;;;;;;;0.80;0.80;;;9.10;99.90;;;11.94;60.17;98075.56;5029731;28;20041;-46
2023/02/19 04:24:39;;;;;;;0.80;0.77;;;9.20;99.90;;;11.58;61.39;98075.63;5030232;28;20497;-44
2023/02/19 04:27:08;;;;;;;1.03;0.90;;;9.00;99.90;;;11.55;61.19;98081.28;5029899;28;20449;-43
2023/02/19 04:29:36;;;;;;;2.20;1.00;;;9.00;99.90;;;11.54;61.22;98097.44;5029801;28;20284;-45
2023/02/19 04:32:08;;;;;;;0.93;0.70;;;8.90;99.90;;;11.47;61.58;98083.06;5030705;28;20041;-43
2023/02/19 04:34:36;;;;;;;0.80;0.80;;;8.80;99.90;;;11.40;61.77;98114.84;5030573;28;20501;-45
2023/02/19 04:37:03;;;;;;;1.10;1.00;;;8.80;99.90;;;11.34;62.05;98078.13;5030759;28;20413;-48
2023/02/19 04:39:32;;;;;;;1.30;1.10;;;8.80;99.90;;;11.32;61.88;98086.31;5030912;28;20045;-48
2023/02/19 04:41:59;;;;;;;1.27;1.17;;;8.70;99.90;;;11.25;62.06;98089.75;5029472;28;20037;-46
2023/02/19 04:44:27;;;;;;;1.10;1.00;;;8.70;99.90;;;11.50;61.75;98090.75;5030680;28;20498;-45
2023/02/19 04:46:55;;;;;;;1.30;1.00;;;8.80;99.90;;;11.55;61.46;98102.59;5031023;28;20068;-47
2023/02/19 04:49:22;;;;;;;1.10;0.80;;;8.80;99.90;;;11.17;62.26;98086.00;5029384;28;20045;-46
2023/02/19 04:51:50;;;;;;;1.10;1.00;;;8.70;99.90;;;11.09;62.82;98093.09;5030665;28;20044;-45
2023/02/19 04:54:17;;;;;;;0.90;0.90;;;8.70;99.90;;;10.96;63.45;98094.31;5030328;28;20038;-46
2023/02/19 04:56:45;;;;;;;1.03;0.90;;;8.50;99.90;;;11.01;62.99;98100.03;5029648;28;20037;-44
2023/02/19 04:59:12;;;;;;;0.80;0.80;;;8.60;99.90;;;11.08;62.51;98092.25;5030467;28;20401;-46
2023/02/19 05:01:40;;;;;;;0.73;0.73;;;8.60;99.90;;;10.86;63.25;98084.72;5027653;28;20052;-43
2023/02/19 05:04:07;;;;;;;1.43;1.10;;;8.50;99.90;;;11.12;62.99;98098.94;5030181;28;20045;-43
2023/02/19 05:06:35;;;;;;;1.13;0.87;;;8.60;99.90;;;11.25;62.39;98103.06;5030638;28;20044;-43
2023/02/19 05:09:03;;;;;;;1.33;1.00;;;8.60;99.90;;;11.04;62.46;98105.03;5030264;28;20421;-46
2023/02/19 05:11:30;;;;;;;1.43;1.23;;;8.60;99.90;;;11.11;62.41;98107.09;5029418;28;20045;-47
2023/02/19 05:13:58;;;;;;;1.83;1.00;;;8.60;99.90;;;10.83;63.65;98110.66;5030110;28;20045;-46
2023/02/19 05:16:25;;;;;;;1.20;0.97;;;8.50;99.90;;;11.01;63.07;98101.84;5030633;28;20046;-44
2023/02/19 05:18:53;;;;;;;1.03;0.93;;;8.50;99.90;;;11.02;63.04;98101.69;5030209;28;20058;-45
2023/02/19 05:21:20;;;;;;;0.80;0.80;;;8.50;99.90;;;10.85;63.68;98102.53;5030351;28;20042;-47
2023/02/19 05:23:48;;;;;;;1.00;0.90;;;8.40;99.90;;;10.90;63.30;98104.75;5030191;28;20068;-47
2023/02/19 05:26:23;;;;;;;0.93;0.90;;;8.40;99.90;;;10.78;63.66;98099.66;5030417;28;20528;-46
2023/02/19 05:28:52;;;;;;;4.10;0.87;;;8.40;99.90;;;10.90;63.21;98102.09;5030168;28;20044;-49
2023/02/19 05:31:20;;;;;;;0.60;0.60;;;8.40;99.90;;;10.83;63.69;98102.69;5032661;28;20037;-44
2023/02/19 05:33:50;;;;;;;0.93;0.70;;;8.40;99.90;;;10.57;64.14;98105.25;5032540;28;20048;-48
2023/02/19 05:36:20;;;;;;;1.00;0.80;;;8.30;99.90;;;10.76;63.44;98106.97;5033791;28;20494;-44
2023/02/19 05:38:52;;;;;;;1.43;0.80;;;8.40;99.90;;;10.74;63.63;98126.72;5032316;28;20072;-46
2023/02/19 05:41:25;;;;;;;0.77;0.70;;;8.40;99.90;;;10.76;63.39;98114.94;5033628;28;20045;-46
2023/02/19 05:43:53;;;;;;;1.10;0.77;;;8.30;99.90;;;10.49;63.90;98125.59;5032255;28;20535;-43
2023/02/19 05:46:25;;;;;;;0.97;0.70;;;8.30;99.90;;;10.57;63.43;98131.06;5033840;28;20413;-43
2023/02/19 05:48:54;;;;;;;0.70;0.70;;;8.30;99.90;;;10.58;63.51;98125.53;5032075;28;20112;-45
2023/02/19 05:51:24;;;;;;;0.60;0.60;;;8.30;99.90;;;10.72;63.57;98131.34;5033662;28;20038;-46
2023/02/19 05:53:52;;;;;;;0.70;0.60;;;8.40;99.90;;;10.71;63.02;98137.69;5033353;28;20432;-47
2023/02/19 05:56:26;;;;;;;0.93;0.73;;;8.30;99.90;;;10.66;63.39;98131.97;5033439;28;20038;-46
2023/02/19 05:58:54;;;;;;;1.40;1.17;;;8.40;99.90;;;10.59;63.54;98142.38;5033658;28;20048;-46
2023/02/19 06:01:25;;;;;;;1.07;0.97;;;8.40;99.90;;;10.68;62.88;98125.50;5033278;28;20041;-44
2023/02/19 06:03:53;;;;;;;1.40;1.10;;;8.40;99.90;;;10.87;62.31;98142.34;5032376;28;20046;-47
2023/02/19 06:06:26;;;;;;;1.70;1.03;;;8.40;99.90;;;10.75;62.44;98129.22;5025650;28;20057;-43
2023/02/19 06:08:54;;;;;;;1.30;1.03;;;8.40;99.90;;;10.93;61.92;98139.91;5033324;28;20056;-47
2023/02/19 06:11:22;;;;;;;1.33;1.00;;;8.50;99.90;;;10.98;61.87;98121.63;5033313;28;20045;-44
2023/02/19 06:13:50;;;;;;;1.00;0.87;;;8.50;99.90;;;11.21;61.38;98124.69;5032661;28;20052;-44
2023/02/19 06:16:18;;;;;;;0.87;0.80;;;8.60;99.90;;;11.22;61.37;98122.84;5031543;28;20053;-47
2023/02/19 06:18:46;;;;;;;1.77;1.10;;;8.60;99.90;;;11.39;60.45;98135.31;5033388;28;20049;-44
2023/02/19 06:21:15;;;;;;;1.00;0.90;;;8.70;99.90;;;11.19;60.76;98139.16;5015416;28;20053;-45
2023/02/19 06:23:43;;;;;;;1.13;1.03;;;8.60;99.90;;;11.23;60.68;98141.34;5031898;28;20049;-45
2023/02/19 06:26:19;;;;;;;1.10;1.00;;;8.60;99.90;;;11.12;60.82;98144.25;5033087;28;20068;-46
2023/02/19 06:28:49;;;;;;;1.53;1.10;;;8.60;99.90;;;11.20;60.61;98154.97;5032805;28;20041;-44
2023/02/19 06:31:20;;;;;;;0.80;0.80;;;8.60;99.90;;;11.39;60.27;98153.16;5031896;28;20311;-46
2023/02/19 06:33:49;;;;;;;1.43;1.00;;;8.70;99.90;;;11.40;60.11;98158.34;5032843;28;20052;-48
2023/02/19 06:36:19;;;;;;;2.27;1.50;;;8.70;99.90;;;11.31;59.72;98153.09;5032805;28;20394;-44
2023/02/19 06:38:47;;;;;;;1.63;1.20;;;8.70;99.90;;;11.34;59.59;98169.63;5031521;28;20072;-45
2023/02/19 06:41:15;;;;;;;1.37;1.20;;;8.70;99.90;;;11.29;60.06;98173.72;5032461;28;20049;-43
2023/02/19 06:43:43;;;;;;;2.83;1.30;;;8.70;99.90;;;11.25;60.10;98169.69;5031825;28;20056;-42
2023/02/19 06:46:11;;;;;;;1.83;1.20;;;8.60;99.90;;;11.42;59.52;98184.84;5032502;28;20056;-44
2023/02/19 06:48:42;;;;;;;1.63;1.53;;;8.70;99.90;;;11.37;59.33;98176.47;5032477;28;20041;-50
2023/02/19 06:51:21;;;;;;;2.60;1.57;;;8.70;99.90;;;11.25;59.36;98185.69;5032590;28;20052;-51
2023/02/19 06:53:49;;;;;;;2.17;1.60;;;8.70;99.90;;;11.15;59.76;98181.25;5032327;28;20060;-47
2023/02/19 06:56:39;;;;;;;1.73;1.30;;;8.70;99.90;;;11.07;59.85;98188.31;5032550;28;20045;-48
2023/02/19 06:59:12;;;;;;;2.23;1.77;;;8.70;99.90;;;11.34;59.32;98188.28;5032493;28;20049;-46
2023/02/19 07:01:39;;;;;;;2.23;1.73;;;8.70;99.90;;;11.43;59.48;98199.84;5032376;28;20516;-48
2023/02/19 07:04:07;;;;;;;1.53;1.30;;;8.70;99.90;;;11.28;59.34;98191.53;5030999;28;20049;-50
2023/02/19 07:06:35;;;;;;;1.80;1.60;;;8.70;99.90;;;11.39;59.51;98209.13;5032312;28;20037;-49
2023/02/19 07:09:05;;;;;;;2.50;1.63;;;8.70;99.90;;;11.50;58.84;98208.91;5032153;28;20047;-50
2023/02/19 07:11:36;;;;;;;4.00;2.37;;;8.80;99.90;;;11.63;58.47;98196.03;5032188;28;20060;-51
2023/02/19 07:14:07;;;;;;;2.60;2.03;;;8.80;99.90;;;11.58;58.87;98216.97;5031735;28;20048;-53
2023/02/19 07:16:35;;;;;;;2.60;1.60;;;8.90;99.90;;;11.40;59.38;98216.16;5031963;28;20041;-50
2023/02/19 07:19:03;;;;;;;2.60;2.17;;;8.70;99.90;;;11.50;58.88;98219.56;5030836;28;20413;-48
2023/02/19 07:21:31;;;;;;;2.10;1.70;;;8.80;99.90;;;11.37;59.04;98227.94;5032015;28;20049;-49
2023/02/19 07:23:58;;;;;;;2.63;1.80;;;8.80;99.90;;;11.55;58.71;98235.94;5031698;28;20045;-52
2023/02/19 07:26:26;;;;;;;2.30;1.67;;;8.90;99.90;;;11.31;59.11;98225.06;5031669;28;20045;-49
2023/02/19 07:28:53;;;;;;;1.80;1.40;;;8.80;99.90;;;11.24;58.94;98222.13;5031881;28;20049;-50
2023/02/19 07:31:22;;;;;;;2.17;1.50;;;8.70;99.90;;;11.48;58.35;98231.38;5032360;28;20038;-48
2023/02/19 07:33:51;;;;;;;2.37;1.40;;;8.80;99.90;;;11.33;58.51;98237.22;5031626;28;20038;-48
2023/02/19 07:36:20;;;;;;;2.90;1.80;;;8.80;99.90;;;11.33;58.57;98241.72;5031688;28;20052;-50
2023/02/19 07:38:56;;;;;;;2.90;2.03;;;8.70;99.90;;;11.56;58.22;98239.47;5031583;28;20416;-47
2023/02/19 07:41:25;;;;;;;2.53;1.87;;;8.80;99.90;;;11.54;58.13;98241.44;5028624;28;20060;-47
2023/02/19 07:43:56;;;;;;;3.40;1.97;;;8.90;99.90;;;11.72;57.45;98255.59;5029459;28;20042;-52
2023/02/19 07:46:24;;;;;;;2.00;1.40;;;9.00;99.90;;;11.43;57.65;98255.81;5030539;28;20440;-50
2023/02/19 07:48:51;;;;;;;3.37;1.93;;;8.90;99.90;;;11.41;58.12;98245.31;5030154;28;20551;-48
2023/02/19 07:51:20;;;;;;;3.37;2.30;;;8.80;99.90;;;11.69;57.51;98252.38;5030697;28;20393;-50
2023/02/19 07:53:49;;;;;;;2.43;1.80;;;8.90;99.90;;;11.61;57.40;98263.81;5029824;28;20037;-47
2023/02/19 07:56:18;;;;;;;2.87;1.90;;;8.90;99.90;;;11.45;58.33;98261.84;5030056;28;20041;-47
2023/02/19 07:58:45;;;;;;;1.73;1.60;;;8.90;99.90;;;11.40;58.16;98264.13;5030081;28;20037;-50
2023/02/19 08:01:17;;;;;;;2.57;2.00;;;8.80;99.90;;;11.35;57.93;98272.56;5030108;28;20038;-51
2023/02/19 08:03:45;;;;;;;2.27;1.70;;;8.80;99.90;;;11.21;58.89;98273.94;5028827;28;20064;-48
2023/02/19 08:06:15;;;;;;;2.27;1.67;;;8.80;99.90;;;11.35;58.46;98272.56;5030017;28;20056;-47
2023/02/19 08:08:42;;;;;;;2.10;1.70;;;8.80;99.90;;;11.26;58.82;98278.81;5028972;28;20042;-51
2023/02/19 08:13:56;;;;;;;1.67;1.50;;;8.70;99.90;;;11.33;58.12;98279.88;5029711;28;20038;-50
2023/02/19 08:16:23;;;;;;;2.60;1.80;;;8.80;99.90;;;11.41;58.51;98287.13;5029817;28;20061;-50
2023/02/19 08:19:08;;;;;;;1.93;1.20;;;8.80;99.90;;;11.56;57.63;98298.94;5029937;28;20409;-49
2023/02/19 08:21:36;;;;;;;1.20;1.10;;;8.90;99.90;;;11.54;57.91;98295.59;5029557;28;20046;-52
2023/02/19 08:24:04;;;;;;;2.30;1.67;;;8.90;99.90;;;11.71;57.28;98301.06;5029787;28;20045;-52
2023/02/19 08:26:33;;;;;;;1.00;0.90;;;9.00;99.90;;;11.89;57.29;98307.28;5022165;28;20046;-47
2023/02/19 08:29:01;;;;;;;1.63;1.07;;;9.10;99.90;;;11.61;57.44;98302.00;5030013;28;20053;-46
2023/02/19 08:31:30;;;;;;;1.50;1.20;;;9.00;99.90;;;11.74;57.46;98311.47;5028805;28;20044;-49
2023/02/19 08:33:57;;;;;;;1.73;1.23;;;9.00;99.90;;;11.51;57.06;98322.56;5029593;28;20508;-48
2023/02/19 08:36:25;;;;;;;2.30;1.27;;;9.00;99.90;;;11.39;57.87;98313.09;5029514;28;20038;-48
2023/02/19 08:38:53;;;;;;;2.50;1.10;;;8.90;99.90;;;11.42;58.10;98312.81;5029820;28;20044;-50
2023/02/19 08:41:20;;;;;;;2.67;1.20;;;8.90;99.90;;;11.55;57.42;98315.09;5029878;28;20072;-49
2023/02/19 08:43:48;;;;;;;1.50;1.20;;;8.90;99.90;;;11.61;57.05;98330.50;5029540;28;20385;-52
2023/02/19 08:46:15;;;;;;;3.57;1.97;;;9.00;99.90;;;11.69;57.37;98311.06;5029800;28;20524;-50
2023/02/19 08:48:43;;;;;;;3.73;1.80;;;9.00;99.90;;;11.85;56.89;98305.91;5028068;28;20037;-50
2023/02/19 08:51:11;;;;;;;2.40;1.63;;;9.10;99.90;;;11.92;56.98;98322.16;5029485;28;20505;-50
2023/02/19 08:53:40;;;;;;;3.00;1.50;;;9.20;99.90;;;11.86;56.98;98310.22;5029434;28;20038;-48
2023/02/19 08:56:16;;;;;;;1.90;1.50;;;9.20;99.90;;;11.79;56.96;98311.84;5029480;28;20409;-47
2023/02/19 08:58:44;;;;;;;2.33;1.70;;;9.10;99.90;;;11.90;56.76;98308.97;5029751;28;20484;-50
2023/02/19 09:01:16;;;;;;;4.50;1.70;;;9.20;99.90;;;11.90;56.52;98321.47;5028903;28;20075;-48
2023/02/19 09:03:44;;;;;;;3.37;1.60;;;9.20;99.90;;;11.68;56.61;98328.91;5029321;28;20068;-50
2023/02/19 09:06:18;;;;;;;3.27;1.70;;;9.00;99.90;;;11.53;57.16;98315.25;5030663;28;20501;-48
2023/02/19 09:08:46;;;;;;;3.05;1.65;;;9.00;99.90;;;11.69;56.97;98322.59;5032279;28;20044;-49
2023/02/19 09:11:14;;;;;;;3.17;1.50;;;9.00;99.90;;;11.57;57.17;98340.66;5033399;28;20037;-49
2023/02/19 09:13:42;;;;;;;3.17;1.80;;;9.00;99.90;;;11.57;56.98;98334.44;5030050;28;20497;-46
2023/02/19 09:16:10;;;;;;;3.07;2.10;;;9.00;99.90;;;11.72;56.26;98340.13;5033267;28;20048;-46
2023/02/19 09:18:38;;;;;;;3.87;2.00;;;9.00;99.90;;;11.86;56.44;98336.91;5033266;28;20045;-48
2023/02/19 09:21:06;;;;;;;2.17;1.50;;;9.20;99.90;;;11.95;56.03;98351.22;5034182;28;20049;-49
2023/02/19 09:23:35;;;;;;;3.43;2.00;;;9.30;99.90;;;11.81;55.87;98348.03;5034055;28;20056;-49
2023/02/19 09:26:07;;;;;;;3.63;1.60;;;9.20;99.90;;;12.06;55.49;98352.78;5034512;28;20044;-46
2023/02/19 09:28:35;;;;;;;5.50;2.27;;;9.30;99.90;;;11.99;55.40;98357.91;5032922;28;20052;-49
2023/02/19 09:31:09;;;;;;;2.93;1.77;;;9.30;99.90;;;12.10;55.21;98360.34;5033985;28;20056;-50
2023/02/19 09:33:45;;;;;;;1.97;1.60;;;9.40;99.90;;;12.24;54.42;98358.13;5024634;28;20050;-50
2023/02/19 09:36:15;;;;;;;1.97;1.63;;;9.50;99.90;;;11.97;53.79;98347.38;5032508;28;20440;-50
2023/02/19 09:38:43;;;;;;;2.63;1.83;;;9.40;99.90;;;12.17;54.24;98347.22;5032432;28;20430;-48
2023/02/19 09:41:29;;;;;;;2.93;1.40;;;9.50;99.90;;;12.35;54.05;98337.38;5033881;28;20061;-49
2023/02/19 09:44:03;;;;;;;2.17;1.40;;;9.60;99.90;;;12.28;53.21;98357.66;5032188;28;20523;-47
2023/02/19 09:46:39;;;;;;;3.03;1.83;;;9.70;99.90;;;12.40;53.43;98364.41;5032552;28;20053;-50
2023/02/19 09:49:34;;;;;;;3.53;1.50;;;9.70;99.90;;;12.64;53.34;98356.75;5032370;28;20051;-50
2023/02/19 09:52:23;;;;;;;5.63;1.93;;;9.80;99.90;;;12.67;53.07;98364.47;5028995;28;20038;-48
2023/02/19 09:54:56;;;;;;;5.47;1.80;;;9.90;99.90;;;12.85;52.90;98357.19;5026083;28;20042;-48
2023/02/19 09:57:26;;;;;;;3.63;1.53;;;10.00;99.90;;;12.87;52.37;98360.59;5031632;28;20046;-47
2023/02/19 10:00:12;;;;;;;1.33;1.23;;;10.10;99.90;;;12.86;52.45;98372.25;5016464;28;20052;-46
2023/02/19 10:02:40;;;;;;;2.77;1.40;;;10.10;99.90;;;12.85;51.99;98369.75;5025883;28;20056;-48
2023/02/19 10:05:13;;;;;;;2.43;1.47;;;10.10;99.90;;;12.79;52.08;98369.38;5032859;28;20053;-49
2023/02/19 10:07:46;;;;;;;3.35;1.75;;;10.10;99.90;;;13.08;51.99;98360.16;5017932;28;20053;-52
2023/02/19 10:10:14;;;;;;;2.20;1.30;;;10.20;99.90;;;13.23;51.67;98357.75;5019453;28;20075;-47
2023/02/19 10:12:52;;;;;;;5.33;1.67;;;10.40;99.90;;;12.93;51.11;98364.44;5027293;28;20033;-48
2023/02/19 10:15:26;;;;;;;2.03;1.20;;;10.20;97.70;;;13.19;51.32;98375.09;5024353;28;20386;-51
2023/02/19 10:17:54;;;;;;;1.58;1.17;;;10.30;99.90;;;12.91;51.28;98363.75;5026314;28;20042;-50
2023/02/19 10:20:26;;;;;;;1.70;1.47;;;10.30;99.90;;;12.98;51.12;98367.47;5027150;28;20512;-48
2023/02/19 10:23:07;;;;;;;2.57;1.40;;;10.30;98.90;;;13.03;50.60;98375.00;5026798;28;20056;-49
2023/02/19 10:25:48;;;;;;;4.63;1.60;;;10.30;95.40;;;12.94;50.51;98376.81;5025130;28;20068;-51
2023/02/19 10:28:24;;;;;;;2.43;1.70;;;10.30;95.80;;;12.91;51.10;98387.81;5025934;28;20056;-46
2023/02/19 10:30:59;;;;;;;2.07;1.30;;;10.30;98.00;;;12.94;50.97;98385.66;5025147;28;20037;-46
2023/02/19 10:33:26;;;;;;;2.13;1.20;;;10.30;97.50;;;12.95;50.87;98382.00;5026994;28;20037;-52
2023/02/19 10:36:06;;;;;;;4.50;1.50;;;10.30;97.70;;;12.99;51.00;98379.84;5027120;28;20096;-48
2023/02/19 10:38:44;;;;;;;4.87;1.70;;;10.30;98.40;;;12.93;50.68;98388.47;5025694;28;20045;-46
2023/02/19 10:41:16;;;;;;;2.40;1.17;;;10.30;96.60;;;12.80;51.21;98391.59;5025783;28;20053;-48
2023/02/19 10:44:13;;;;;;;2.87;1.70;;;10.20;96.80;;;12.79;50.47;98411.28;5024170;28;20045;-49
2023/02/19 10:46:45;;;;;;;3.87;1.60;;;10.20;95.60;;;12.98;50.70;98416.41;5022236;28;20045;-47
2023/02/19 10:49:28;;;;;;;1.93;1.10;;;10.30;96.80;;;13.14;50.55;98423.72;5023717;28;20501;-47
2023/02/19 10:52:01;;;;;;;3.60;1.63;;;10.40;96.70;;;12.99;50.91;98425.28;5025169;28;20052;-45
2023/02/19 10:54:33;;;;;;;3.67;1.40;;;10.30;96.30;;;13.15;50.30;98429.91;5024076;28;20053;-50
2023/02/19 10:57:24;;;;;;;2.23;1.47;;;10.30;96.90;;;13.30;50.42;98435.50;5026307;28;20053;-46
2023/02/19 10:59:56;;;;;;;1.80;1.40;;;10.40;96.50;;;13.29;50.27;98429.28;5030224;28;20041;-47
2023/02/19 11:02:25;;;;;;;1.90;1.30;;;10.40;96.80;;;13.18;50.29;98446.47;5032308;28;20053;-47
2023/02/19 11:05:07;;;;;;;3.97;2.17;;;10.30;96.30;;;13.24;50.34;98430.75;5031925;28;20046;-45
2023/02/19 11:07:41;;;;;;;2.97;1.60;;;10.30;95.80;;;13.24;50.02;98428.09;5031877;28;20053;-47
2023/02/19 11:10:24;;;;;;;;;;;10.30;95.00;;;13.27;49.99;98430.47;5031627;28;20060;-46
2023/02/19 11:12:59;;;;;;;2.57;1.63;;;10.30;96.30;;;13.30;50.07;98425.66;5024277;28;19928;-50
2023/02/19 11:15:34;;;;;;;3.27;1.87;;;10.30;96.60;;;13.38;50.05;98424.88;5031598;28;20072;-50
2023/02/19 11:18:11;;;;;;;2.50;1.30;;;10.40;96.80;;;13.38;49.78;98422.19;5030836;28;20045;-45
2023/02/19 11:21:03;;;;;;;2.70;1.83;;;10.40;95.10;;;13.12;50.13;98424.84;5031409;28;20041;-50